Time;durP1;ratioP1;P1;durP2;ratioP2;P2;SDS_P1;SDS_P2;PMS_P1;PMS_P2;Temp;Humidity;BMP_temperature;BMP_pressure;BME280_temperature;BME280_humidity;BME280_pressure;Samples;Min_cycle;Max_cycle;Signal;HPM_P1;HPM_P2
2022/06/22 00:00:29;;;;;;;16.90;11.02;;;;;;;16.24;68.12;98323.00;4967661;28;20053;-81
2022/06/22 00:02:57;;;;;;;14.75;11.25;;;;;;;16.21;68.36;98328.44;4966972;28;20038;-79
2022/06/22 00:05:37;;;;;;;14.38;10.80;;;;;;;16.20;68.56;98329.38;4961843;28;20039;-80
2022/06/22 00:08:11;;;;;;;13.32;10.30;;;;;;;16.24;68.71;98327.41;4958936;28;20042;-79
2022/06/22 00:10:50;;;;;;;13.45;10.73;;;;;;;16.22;68.70;98329.28;4963001;28;20459;-80
2022/06/22 00:13:21;;;;;;;15.88;11.38;;;;;;;16.20;68.77;98320.63;4957851;28;20103;-80
2022/06/22 00:15:50;;;;;;;14.98;10.90;;;;;;;16.19;68.94;98324.19;4974588;28;20141;-80
2022/06/22 00:18:42;;;;;;;14.45;11.40;;;;;;;16.09;68.88;98316.84;4949683;28;20069;-80
2022/06/22 00:21:14;;;;;;;;;;;;;;;16.14;69.21;98321.81;4968460;28;20138;-80
2022/06/22 00:23:43;;;;;;;16.50;11.40;;;;;;;15.94;69.33;98291.44;4965954;28;19928;-81
2022/06/22 00:26:20;;;;;;;16.10;10.65;;;;;;;16.06;69.67;98314.38;4963535;28;20067;-79
2022/06/22 00:29:04;;;;;;;15.73;11.48;;;;;;;16.14;69.46;98331.47;4965856;28;20077;-78
2022/06/22 00:31:30;;;;;;;16.73;10.98;;;;;;;16.15;69.71;98333.16;4969909;28;20448;-82
2022/06/22 00:34:10;;;;;;;13.93;10.57;;;;;;;16.02;69.60;98309.38;4970252;28;20074;-82
2022/06/22 00:36:57;;;;;;;14.13;10.32;;;;;;;16.08;69.57;98311.66;4968267;28;20070;-81
2022/06/22 00:39:29;;;;;;;19.38;11.93;;;;;;;16.20;69.70;98318.88;4968691;28;20046;-80
2022/06/22 00:42:14;;;;;;;17.52;11.48;;;;;;;16.21;69.83;98322.31;4965322;28;20055;-81
2022/06/22 00:44:49;;;;;;;14.98;10.45;;;;;;;16.23;69.77;98323.91;4966681;28;20141;-80
2022/06/22 00:47:24;;;;;;;12.55;10.35;;;;;;;16.21;69.97;98317.94;4962499;28;20042;-80
2022/06/22 00:49:54;;;;;;;13.40;10.73;;;;;;;16.26;70.08;98323.75;4946230;28;20062;-80
2022/06/22 00:52:46;;;;;;;15.52;11.27;;;;;;;16.15;69.95;98302.53;4968000;28;20627;-78
2022/06/22 00:55:35;;;;;;;;;;;;;;;16.31;69.94;98318.28;4947837;28;20216;-80
2022/06/22 00:58:33;;;;;;;13.05;10.90;;;;;;;16.31;69.98;98328.78;4967843;28;19922;-79
2022/06/22 01:01:06;;;;;;;15.90;11.02;;;;;;;16.30;69.85;98320.97;4967672;28;20055;-79
2022/06/22 01:04:01;;;;;;;19.23;11.65;;;;;;;16.25;69.96;98324.69;4965673;28;20049;-80
2022/06/22 01:06:46;;;;;;;15.50;11.27;;;;;;;16.24;69.68;98325.63;4944734;28;20042;-79
2022/06/22 01:09:32;;;;;;;14.40;11.00;;;;;;;16.23;69.79;98331.78;4965987;28;20134;-79
2022/06/22 01:12:17;;;;;;;15.80;11.07;;;;;;;16.14;69.80;98308.72;4976306;28;20049;-79
2022/06/22 01:15:20;;;;;;;17.15;11.82;;;;;;;16.17;69.76;98329.53;4963429;28;20053;-79
2022/06/22 01:18:11;;;;;;;14.05;11.27;;;;;;;16.09;69.95;98326.47;4963740;28;20039;-78
2022/06/22 01:20:52;;;;;;;16.92;10.57;;;;;;;16.17;69.89;98341.78;4971444;28;20062;-80
2022/06/22 01:23:41;;;;;;;16.95;10.80;;;;;;;16.18;69.94;98343.47;4953660;28;20523;-79
2022/06/22 01:26:35;;;;;;;15.32;10.65;;;;;;;16.22;69.97;98345.00;4966252;28;20054;-81
2022/06/22 01:29:23;;;;;;;14.63;9.82;;;;;;;16.24;70.04;98338.72;4946861;28;20134;-78
2022/06/22 01:32:01;;;;;;;14.32;10.75;;;;;;;16.25;69.68;98334.34;4962566;28;20049;-79
2022/06/22 01:34:35;;;;;;;13.65;10.15;;;;;;;16.26;69.75;98346.53;4946989;28;20395;-78
2022/06/22 01:37:06;;;;;;;14.73;9.20;;;;;;;16.18;69.86;98330.38;4964185;28;20058;-80
2022/06/22 01:39:32;;;;;;;15.65;9.63;;;;;;;16.13;69.82;98328.00;4980251;28;20047;-79
2022/06/22 01:42:05;;;;;;;16.88;10.23;;;;;;;16.17;69.75;98334.78;4962314;28;20523;-80
2022/06/22 01:44:48;;;;;;;14.60;9.65;;;;;;;16.32;69.86;98355.84;4964970;28;20051;-79
2022/06/22 01:47:45;;;;;;;17.92;10.40;;;;;;;16.34;70.11;98365.31;4965871;28;20083;-79
2022/06/22 01:50:18;;;;;;;17.15;10.15;;;;;;;16.36;69.72;98360.84;4943604;28;20078;-78
2022/06/22 01:52:53;;;;;;;16.58;10.45;;;;;;;16.35;69.75;98364.38;4966116;28;20039;-80
2022/06/22 01:55:52;;;;;;;13.55;9.82;;;;;;;16.38;69.81;98366.00;4933668;28;20078;-79
2022/06/22 01:58:18;;;;;;;15.43;10.20;;;;;;;16.41;69.63;98366.69;4967090;28;20043;-79
2022/06/22 02:00:49;;;;;;;17.17;10.75;;;;;;;16.41;69.43;98371.94;4950173;28;20039;-80
2022/06/22 02:03:21;;;;;;;15.43;10.40;;;;;;;16.35;69.35;98367.00;4958159;28;20046;-79
2022/06/22 02:05:58;;;;;;;16.90;10.50;;;;;;;16.46;69.68;98376.91;4963787;28;20093;-79
2022/06/22 02:08:37;;;;;;;15.55;10.20;;;;;;;16.50;69.44;98373.19;4938338;28;20142;-79
2022/06/22 02:11:18;;;;;;;13.05;9.57;;;;;;;16.44;69.29;98370.91;4962662;28;20043;-79
2022/06/22 02:13:51;;;;;;;12.83;8.60;;;;;;;16.47;69.49;98369.91;4963200;28;20113;-80
2022/06/22 02:16:24;;;;;;;14.02;8.57;;;;;;;16.50;69.44;98361.84;4962383;28;20585;-82
2022/06/22 02:18:57;;;;;;;13.73;9.18;;;;;;;16.45;69.44;98362.09;4964805;28;20194;-79
2022/06/22 02:21:37;;;;;;;12.10;8.57;;;;;;;16.55;69.23;98373.78;4972366;28;20073;-81
2022/06/22 02:24:32;;;;;;;11.13;8.10;;;;;;;16.56;69.13;98377.25;4964696;28;20051;-79
2022/06/22 02:27:02;;;;;;;12.10;7.75;;;;;;;16.48;68.67;98369.81;4962312;28;20061;-79
2022/06/22 02:29:33;;;;;;;11.45;7.53;;;;;;;16.55;68.92;98384.28;4965106;28;20093;-79
2022/06/22 02:32:06;;;;;;;11.18;7.47;;;;;;;16.53;68.96;98375.66;4947842;28;20038;-80
2022/06/22 02:34:33;;;;;;;11.35;7.50;;;;;;;16.54;68.75;98369.47;4964361;28;20062;-78
2022/06/22 02:37:03;;;;;;;11.02;8.00;;;;;;;16.34;68.60;98336.44;4972008;28;20039;-78
2022/06/22 02:39:33;;;;;;;11.40;7.65;;;;;;;16.51;68.45;98361.75;4987589;28;20812;-80
2022/06/22 02:44:48;;;;;;;8.10;6.32;;;;;;;16.46;68.41;98355.06;4946927;28;20039;-81
2022/06/22 02:47:25;;;;;;;9.65;6.07;;;;;;;16.53;68.16;98359.91;4967419;28;20043;-81
2022/06/22 02:50:01;;;;;;;16.48;14.77;;;;;;;16.66;67.85;98369.72;4949543;28;20557;-79
2022/06/22 02:52:37;;;;;;;7.95;6.18;;;;;;;16.52;67.93;98345.06;4964224;28;20053;-78
2022/06/22 02:55:05;;;;;;;10.60;5.93;;;;;;;16.62;67.84;98376.06;4960041;28;20035;-80
2022/06/22 02:57:54;;;;;;;9.40;5.45;;;;;;;16.62;67.59;98379.53;4961065;28;20054;-79
2022/06/22 03:00:24;;;;;;;6.97;5.15;;;;;;;16.50;67.54;98353.97;4961453;28;20177;-79
2022/06/22 03:02:57;;;;;;;9.18;5.22;;;;;;;16.56;67.44;98364.13;4962445;28;20408;-79
2022/06/22 03:05:24;;;;;;;7.47;5.03;;;;;;;16.56;67.43;98362.34;4966593;28;20389;-81
2022/06/22 03:07:53;;;;;;;6.40;4.78;;;;;;;16.59;67.32;98373.63;4950584;28;20117;-81
2022/06/22 03:10:34;;;;;;;5.60;4.90;;;;;;;16.62;67.26;98376.06;4961940;28;20065;-78
2022/06/22 03:13:01;;;;;;;8.68;4.93;;;;;;;16.61;67.05;98382.25;4960392;28;20400;-81
2022/06/22 03:15:35;;;;;;;5.60;4.93;;;;;;;16.18;67.17;98299.75;4960633;28;20042;-79
2022/06/22 03:18:14;;;;;;;8.23;4.82;;;;;;;16.28;67.05;98318.44;4944365;28;20515;-79
2022/06/22 03:20:49;;;;;;;6.97;4.15;;;;;;;16.67;66.70;98376.63;4961398;28;20436;-80
2022/06/22 03:23:18;;;;;;;7.00;4.80;;;;;;;16.75;66.54;98371.81;4960795;28;20077;-82
2022/06/22 03:25:50;;;;;;;5.63;4.60;;;;;;;16.71;66.59;98365.91;4961118;28;20101;-79
2022/06/22 03:28:22;;;;;;;6.40;4.28;;;;;;;16.80;66.44;98367.16;4964252;28;20031;-79
2022/06/22 03:30:56;;;;;;;6.03;4.20;;;;;;;16.86;65.94;98379.94;4935658;28;20034;-79
2022/06/22 03:33:44;;;;;;;6.30;4.35;;;;;;;16.98;65.84;98388.94;4963429;28;20038;-79
2022/06/22 03:36:18;;;;;;;20.13;18.15;;;;;;;17.00;65.57;98386.19;4961074;28;20050;-78
2022/06/22 03:38:50;;;;;;;5.03;4.53;;;;;;;17.02;65.67;98392.22;4960831;28;20043;-79
2022/06/22 03:41:22;;;;;;;6.05;4.60;;;;;;;17.06;65.42;98392.88;4960629;28;20072;-78
2022/06/22 03:43:52;;;;;;;;;;;;;;;16.95;65.43;98396.97;4984358;28;20129;-79
2022/06/22 03:46:31;;;;;;;5.03;4.00;;;;;;;16.96;65.35;98387.31;4961492;28;20291;-80
2022/06/22 03:49:15;;;;;;;6.47;4.22;;;;;;;17.06;65.25;98404.25;4963427;28;20473;-78
2022/06/22 03:51:54;;;;;;;6.05;4.38;;;;;;;17.11;65.15;98402.16;4963806;28;20158;-81
2022/06/22 03:54:28;;;;;;;5.25;3.78;;;;;;;17.19;65.00;98400.88;4932918;28;20051;-80
2022/06/22 03:57:03;;;;;;;5.20;4.43;;;;;;;17.05;64.95;98368.38;4963925;28;20042;-81
2022/06/22 03:59:32;;;;;;;5.75;4.25;;;;;;;17.35;65.02;98411.34;4965322;28;20110;-82
2022/06/22 04:02:03;;;;;;;6.30;4.22;;;;;;;17.42;64.97;98410.06;4971690;28;20161;-80
2022/06/22 04:04:29;;;;;;;4.95;4.15;;;;;;;17.47;64.61;98421.13;4974867;28;20082;-82
2022/06/22 04:06:56;;;;;;;6.10;3.90;;;;;;;17.36;64.74;98406.00;4954162;28;20045;-81
2022/06/22 04:09:25;;;;;;;6.95;3.88;;;;;;;17.38;64.79;98425.16;4964762;28;20129;-81
2022/06/22 04:12:01;;;;;;;6.60;4.40;;;;;;;17.38;64.81;98424.31;4962756;28;20059;-81
2022/06/22 04:14:36;;;;;;;7.43;4.20;;;;;;;17.39;64.91;98429.47;4960299;28;20045;-81
2022/06/22 04:17:09;;;;;;;4.85;4.20;;;;;;;17.26;64.74;98410.13;4959279;28;20051;-79
2022/06/22 04:19:43;;;;;;;6.65;4.53;;;;;;;17.46;65.03;98428.19;4960021;28;20039;-79
2022/06/22 04:22:15;;;;;;;6.82;3.92;;;;;;;17.51;65.07;98420.03;4961904;28;20047;-82
2022/06/22 04:24:49;;;;;;;5.70;4.00;;;;;;;17.67;64.09;98438.38;4947421;28;20517;-80
2022/06/22 04:27:35;;;;;;;5.93;4.15;;;;;;;17.60;64.55;98414.22;4962606;28;20047;-81
2022/06/22 04:30:27;;;;;;;7.18;4.35;;;;;;;17.66;64.40;98438.44;4964809;28;20038;-80
2022/06/22 04:33:12;;;;;;;5.25;4.63;;;;;;;17.65;64.32;98437.59;4965899;28;20545;-80
2022/06/22 04:36:00;;;;;;;4.90;4.40;;;;;;;17.82;64.24;98443.63;4945331;28;20062;-80
2022/06/22 04:38:46;;;;;;;6.60;4.38;;;;;;;17.69;63.52;98425.13;4964106;28;20039;-81
2022/06/22 04:41:35;;;;;;;4.97;4.30;;;;;;;17.85;63.86;98451.34;4947246;28;20077;-81
2022/06/22 04:44:05;;;;;;;6.53;4.63;;;;;;;17.78;63.41;98453.50;4953923;28;20047;-81
2022/06/22 04:46:34;;;;;;;6.60;4.55;;;;;;;17.84;63.67;98455.78;4969400;28;20047;-81
2022/06/22 04:49:26;;;;;;;6.03;4.47;;;;;;;17.80;63.51;98456.03;4963416;28;20043;-81
2022/06/22 04:51:54;;;;;;;;;;;;;;;17.83;62.26;98453.22;4953418;28;20035;-83
2022/06/22 04:54:30;;;;;;;6.72;4.90;;;;;;;17.61;63.26;98446.63;4962002;28;19918;-80
2022/06/22 04:57:01;;;;;;;6.47;4.70;;;;;;;17.72;63.03;98456.50;4963314;28;20400;-81
2022/06/22 04:59:29;;;;;;;5.97;4.13;;;;;;;17.84;63.50;98452.28;4962170;28;20043;-81
2022/06/22 05:02:01;;;;;;;5.53;4.70;;;;;;;17.82;63.24;98418.19;4966220;28;20074;-82
2022/06/22 05:04:35;;;;;;;;;;;;;;;18.25;62.93;98453.38;4963923;28;20038;-80
2022/06/22 05:07:46;;;;;;;7.18;4.85;;;;;;;18.24;62.33;98451.66;4973435;28;19939;-81
2022/06/22 05:10:35;;;;;;;7.65;4.70;;;;;;;18.21;62.21;98447.41;4965776;28;20530;-80
2022/06/22 05:13:09;;;;;;;6.07;4.72;;;;;;;18.27;62.28;98446.22;4941002;28;20146;-81
2022/06/22 05:15:37;;;;;;;28.02;17.38;;;;;;;18.39;61.79;98439.34;4964515;28;20582;-80
2022/06/22 05:18:11;;;;;;;10.55;6.85;;;;;;;18.54;61.76;98438.38;4966438;28;20051;-80
2022/06/22 05:21:04;;;;;;;7.88;6.35;;;;;;;18.91;61.55;98453.59;4977519;28;20043;-81
2022/06/22 05:23:32;;;;;;;8.30;5.80;;;;;;;19.09;61.05;98444.53;4971762;28;20055;-81
2022/06/22 05:26:03;;;;;;;9.70;7.00;;;;;;;19.15;60.61;98430.09;4967391;28;20562;-80
2022/06/22 05:28:42;;;;;;;8.50;5.97;;;;;;;19.29;60.56;98421.28;4967494;28;20070;-83
2022/06/22 05:31:22;;;;;;;7.15;4.97;;;;;;;19.47;59.96;98432.38;4985773;28;20076;-80
2022/06/22 05:33:55;;;;;;;6.70;4.80;;;;;;;19.52;59.60;98453.16;4952019;28;20054;-79
2022/06/22 05:36:24;;;;;;;5.32;4.78;;;;;;;19.48;59.63;98456.94;4967690;28;20129;-80
2022/06/22 05:38:53;;;;;;;5.68;4.80;;;;;;;19.57;60.16;98459.81;4968055;28;20043;-78
2022/06/22 05:41:27;;;;;;;5.80;4.30;;;;;;;19.66;60.15;98428.50;4973089;28;20098;-81
2022/06/22 05:44:16;;;;;;;7.88;4.57;;;;;;;20.26;59.46;98458.69;4965616;28;20046;-80
2022/06/22 05:46:57;;;;;;;7.20;4.53;;;;;;;20.42;59.06;98449.69;4964483;28;20050;-81
2022/06/22 05:49:37;;;;;;;5.15;4.57;;;;;;;20.71;57.75;98452.88;4963556;28;20089;-80
2022/06/22 05:52:26;;;;;;;20.45;13.65;;;;;;;20.42;56.48;98474.28;4963607;28;20112;-83
2022/06/22 05:55:02;;;;;;;6.18;5.57;;;;;;;19.91;56.63;98454.06;4978259;28;20057;-82
2022/06/22 05:57:43;;;;;;;8.43;5.50;;;;;;;20.08;57.16;98481.94;4966273;28;20069;-79
2022/06/22 06:00:27;;;;;;;12.90;8.77;;;;;;;20.20;56.84;98479.38;4968539;28;20574;-80
2022/06/22 06:03:31;;;;;;;12.35;9.40;;;;;;;20.19;57.54;98456.59;4983972;28;20043;-82
2022/06/22 06:06:10;;;;;;;15.27;10.02;;;;;;;20.36;57.10;98490.59;4970554;28;20055;-81
2022/06/22 06:08:53;;;;;;;9.60;6.50;;;;;;;20.29;56.40;98482.25;4964228;28;20069;-82
2022/06/22 06:11:24;;;;;;;13.60;9.30;;;;;;;20.29;57.13;98478.75;4978053;28;20039;-81
2022/06/22 06:13:58;;;;;;;5.18;4.20;;;;;;;20.17;56.65;98473.41;4964783;28;20104;-82
2022/06/22 06:16:34;;;;;;;7.40;5.63;;;;;;;20.08;56.82;98470.56;4962560;28;20065;-80
2022/06/22 06:19:04;;;;;;;13.85;10.02;;;;;;;20.14;57.25;98494.72;4963679;28;20035;-81
2022/06/22 06:21:37;;;;;;;6.38;5.22;;;;;;;20.15;57.06;98503.47;4962479;28;20047;-80
2022/06/22 06:24:12;;;;;;;9.25;6.68;;;;;;;20.05;57.39;98505.09;4961216;28;20050;-80
2022/06/22 06:30:15;;;;;;;8.35;5.72;;;;;;;20.08;57.52;98508.34;4957448;28;20071;-83
2022/06/22 06:32:57;;;;;;;7.32;4.75;;;;;;;20.00;57.21;98498.31;4907394;28;20535;-82
2022/06/22 06:35:37;;;;;;;7.35;5.20;;;;;;;19.94;57.32;98495.25;4962729;28;20145;-81
2022/06/22 06:38:23;;;;;;;6.30;5.10;;;;;;;20.04;56.58;98491.03;4950442;28;20798;-82
2022/06/22 06:41:03;;;;;;;10.98;7.47;;;;;;;20.38;56.99;98507.19;4971906;28;20066;-80
2022/06/22 06:43:49;;;;;;;8.57;5.43;;;;;;;20.36;56.51;98484.44;4965336;28;20445;-80
2022/06/22 06:46:27;;;;;;;6.35;5.28;;;;;;;20.55;56.29;98505.13;4963920;28;20035;-81
2022/06/22 06:49:32;;;;;;;7.55;5.15;;;;;;;20.60;56.33;98503.84;4980050;28;20042;-82
2022/06/22 06:52:35;;;;;;;7.05;4.90;;;;;;;20.76;56.73;98508.06;4925278;28;20049;-81
2022/06/22 06:55:13;;;;;;;6.70;4.95;;;;;;;20.75;55.71;98507.19;4960948;28;20403;-82
2022/06/22 06:57:58;;;;;;;7.75;5.47;;;;;;;20.94;55.85;98511.19;4965626;28;20043;-80
2022/06/22 07:00:24;;;;;;;5.53;4.60;;;;;;;21.17;55.73;98511.31;4979301;28;20055;-81
2022/06/22 07:02:50;;;;;;;9.73;5.70;;;;;;;21.35;55.88;98509.94;4947708;28;20052;-79
2022/06/22 07:05:20;;;;;;;7.18;4.45;;;;;;;21.68;54.84;98494.34;4946576;28;20178;-80
2022/06/22 07:07:50;;;;;;;4.88;4.38;;;;;;;22.29;54.04;98513.59;4949433;28;20129;-81
2022/06/22 07:10:41;;;;;;;5.20;3.85;;;;;;;22.58;53.43;98481.34;4963704;28;20042;-82
2022/06/22 07:13:33;;;;;;;6.82;4.18;;;;;;;22.93;52.80;98506.81;4964626;28;20511;-81
2022/06/22 07:16:05;;;;;;;5.82;3.65;;;;;;;23.35;51.82;98504.28;4964395;28;20181;-81
2022/06/22 07:18:39;;;;;;;16.42;3.65;;;;;;;23.69;50.58;98517.44;4961816;28;20043;-81
2022/06/22 07:21:59;;;;;;;6.35;3.70;;;;;;;23.66;50.06;98530.09;4964914;28;20035;-82
2022/06/22 07:24:34;;;;;;;6.65;4.10;;;;;;;23.66;50.03;98533.59;4862625;29;20568;-80
2022/06/22 07:27:20;;;;;;;5.50;4.50;;;;;;;23.62;50.00;98526.88;4963351;28;20042;-81
2022/06/22 07:30:11;;;;;;;7.95;3.90;;;;;;;23.64;47.99;98532.03;4977052;28;20042;-82
2022/06/22 07:32:48;;;;;;;5.03;4.17;;;;;;;24.09;49.44;98529.16;4946988;28;20035;-80
2022/06/22 07:35:35;;;;;;;8.70;4.20;;;;;;;24.52;47.86;98528.09;4946924;28;20098;-80
2022/06/22 07:38:26;;;;;;;4.57;3.70;;;;;;;24.77;47.38;98538.47;4969203;28;20669;-80
2022/06/22 07:43:38;;;;;;;5.18;3.85;;;;;;;24.87;47.23;98536.66;4963358;28;20034;-80
2022/06/22 07:46:06;;;;;;;5.20;4.30;;;;;;;25.21;46.13;98546.09;4962871;28;20074;-81
2022/06/22 07:48:39;;;;;;;9.15;4.30;;;;;;;25.23;46.08;98531.69;4979805;28;20511;-80
2022/06/22 07:51:08;;;;;;;5.10;4.00;;;;;;;25.36;46.08;98549.19;4964766;28;20110;-81
2022/06/22 07:53:46;;;;;;;5.53;3.70;;;;;;;25.16;45.97;98546.53;4971467;28;20065;-81
2022/06/22 07:57:01;;;;;;;4.57;3.70;;;;;;;24.74;44.88;98560.00;4963982;28;20142;-81
2022/06/22 07:59:33;;;;;;;5.65;3.92;;;;;;;24.25;45.98;98533.19;4941969;28;20383;-81
2022/06/22 08:02:05;;;;;;;5.90;4.20;;;;;;;24.21;46.17;98561.81;4980786;28;20046;-80
2022/06/22 08:04:39;;;;;;;6.93;4.30;;;;;;;24.00;44.80;98570.63;4982656;28;20034;-81
2022/06/22 08:07:14;;;;;;;6.25;4.57;;;;;;;24.00;46.16;98575.94;4982710;28;20042;-81
2022/06/22 08:09:40;;;;;;;6.18;4.60;;;;;;;23.95;46.13;98580.75;4954004;28;20022;-81
2022/06/22 08:12:15;;;;;;;6.72;5.18;;;;;;;24.06;46.62;98571.91;4963918;28;20518;-81
2022/06/22 08:14:41;;;;;;;6.03;4.82;;;;;;;24.29;45.61;98569.97;4962700;28;20460;-82
2022/06/22 08:17:26;;;;;;;8.27;4.10;;;;;;;24.22;46.00;98560.84;4961869;28;20058;-80
2022/06/22 08:19:52;;;;;;;5.00;4.28;;;;;;;24.38;45.68;98551.56;4963000;28;20126;-83
2022/06/22 08:22:19;;;;;;;5.55;4.05;;;;;;;24.70;44.67;98554.09;4963108;28;20086;-80
2022/06/22 08:24:48;;;;;;;5.18;3.60;;;;;;;24.81;44.32;98559.31;4961204;28;20043;-80
2022/06/22 08:27:18;;;;;;;4.90;3.78;;;;;;;24.74;43.50;98554.69;4972742;28;20057;-80
2022/06/22 08:29:46;;;;;;;4.35;3.92;;;;;;;24.46;44.27;98552.59;4974415;28;20047;-79
2022/06/22 08:32:21;;;;;;;5.32;3.55;;;;;;;24.49;43.40;98565.63;4962591;28;20047;-81
2022/06/22 08:35:08;;;;;;;4.60;3.67;;;;;;;24.38;43.24;98548.91;4931618;28;20051;-81
2022/06/22 08:37:44;;;;;;;5.57;3.60;;;;;;;24.43;43.90;98566.13;4944964;28;20051;-79
2022/06/22 08:40:40;;;;;;;7.47;3.90;;;;;;;24.45;43.79;98542.91;4979485;28;20070;-83
2022/06/22 08:43:19;;;;;;;7.55;3.88;;;;;;;24.75;43.58;98564.34;4965879;28;20098;-80
2022/06/22 08:46:30;;;;;;;5.57;3.58;;;;;;;25.11;42.79;98560.25;4964692;28;20046;-80
2022/06/22 08:49:13;;;;;;;4.68;3.40;;;;;;;25.37;42.72;98550.88;4965404;28;20094;-80
2022/06/22 08:51:56;;;;;;;6.00;3.90;;;;;;;25.74;41.52;98570.69;4937264;28;20030;-81
2022/06/22 08:54:30;;;;;;;5.13;3.20;;;;;;;25.74;41.03;98566.19;4979990;28;20058;-80
2022/06/22 08:57:03;;;;;;;21.02;16.98;;;;;;;25.78;41.54;98562.25;4962872;28;20094;-81
2022/06/22 08:59:43;;;;;;;7.10;3.88;;;;;;;25.86;40.80;98554.41;4964052;28;20046;-79
2022/06/22 09:02:40;;;;;;;4.05;3.70;;;;;;;25.98;39.81;98572.91;4965133;28;20113;-82
2022/06/22 09:05:25;;;;;;;4.10;3.40;;;;;;;26.21;40.27;98570.81;4977849;28;20050;-81
2022/06/22 09:07:52;;;;;;;7.88;5.90;;;;;;;26.66;39.82;98568.41;4966721;28;20193;-82
2022/06/22 09:10:51;;;;;;;3.78;2.60;;;;;;;27.18;38.17;98550.03;4965971;28;20053;-81
2022/06/22 09:13:58;;;;;;;4.78;2.50;;;;;;;28.75;37.60;98555.78;4967256;28;20450;-80
2022/06/22 09:16:49;;;;;;;5.63;2.97;;;;;;;30.18;34.77;98546.78;4900576;29;21237;-83
2022/06/22 09:19:34;;;;;;;3.30;2.40;;;;;;;30.24;33.38;98542.56;4964156;28;20085;-80
2022/06/22 09:22:14;;;;;;;2.78;2.50;;;;;;;30.53;33.25;98570.66;4976994;28;20039;-81
2022/06/22 09:25:02;;;;;;;2.47;2.27;;;;;;;30.09;33.80;98571.09;4967889;28;20062;-81
2022/06/22 09:27:47;;;;;;;4.22;2.90;;;;;;;30.01;33.30;98577.31;4969176;28;20057;-82
2022/06/22 09:30:44;;;;;;;4.50;2.55;;;;;;;31.05;33.10;98576.50;4964818;28;20043;-81
2022/06/22 09:33:26;;;;;;;18.50;14.15;;;;;;;32.66;30.74;98557.75;4964826;28;20039;-80
2022/06/22 09:36:23;;;;;;;4.57;3.10;;;;;;;33.33;29.70;98560.41;4962274;28;20047;-80
2022/06/22 09:39:04;;;;;;;5.50;3.67;;;;;;;32.59;30.51;98560.38;4964537;28;20133;-81
2022/06/22 09:41:54;;;;;;;7.32;5.10;;;;;;;32.02;30.29;98571.69;4961393;28;20182;-81
2022/06/22 09:44:30;;;;;;;2.58;2.38;;;;;;;31.53;29.25;98566.50;4963992;28;20122;-80
2022/06/22 09:47:05;;;;;;;4.85;2.35;;;;;;;31.67;29.02;98569.41;4963338;28;20592;-80
2022/06/22 09:49:50;;;;;;;2.90;2.63;;;;;;;31.57;29.69;98575.03;4963981;28;20590;-80
2022/06/22 09:52:28;;;;;;;4.82;2.72;;;;;;;31.56;29.39;98576.06;4947477;28;21166;-80
2022/06/22 09:59:07;;;;;;;2.80;2.60;;;;;;;30.64;29.98;98583.72;4964474;28;20066;-86
2022/06/22 10:02:00;;;;;;;4.10;2.70;;;;;;;30.40;30.11;98590.00;4960721;28;20039;-82
2022/06/22 10:04:48;;;;;;;4.03;3.00;;;;;;;30.07;30.62;98584.66;4962706;28;20051;-83
2022/06/22 10:08:10;;;;;;;5.22;3.05;;;;;;;29.34;30.48;98562.97;4965388;28;20053;-82
2022/06/22 10:10:57;;;;;;;5.57;3.83;;;;;;;28.60;31.47;98543.94;4934945;28;20049;-81
2022/06/22 10:13:48;;;;;;;6.70;5.15;;;;;;;28.51;32.23;98600.09;4945891;28;20057;-81
2022/06/22 10:17:05;;;;;;;5.75;3.50;;;;;;;28.15;32.86;98610.88;4946434;28;20436;-82
2022/06/22 10:20:01;;;;;;;7.88;4.45;;;;;;;27.87;32.79;98602.13;4919463;28;20039;-81
2022/06/22 10:23:07;;;;;;;4.57;3.28;;;;;;;27.55;33.57;98615.03;4946053;28;20047;-80
2022/06/22 10:26:44;;;;;;;;;;;;;;;;;;;;;
2022/06/22 10:30:07;;;;;;;3.20;2.83;;;;;;;26.69;33.66;98629.47;4888805;28;20174;-83
2022/06/22 10:33:10;;;;;;;4.72;2.55;;;;;;;26.33;34.45;98623.94;4966559;28;20074;-82
2022/06/22 10:36:07;;;;;;;;;;;;;;;;;;;;;
2022/06/22 10:39:25;;;;;;;3.95;2.67;;;;;;;25.63;36.00;98627.59;4975248;28;20271;-81
2022/06/22 10:45:20;;;;;;;2.72;2.20;;;;;;;25.43;36.68;98627.56;4972107;28;20039;-79
2022/06/22 10:48:34;;;;;;;1.98;1.70;;;;;;;25.11;36.13;98650.72;4979368;28;20043;-79
2022/06/22 10:51:40;;;;;;;4.97;1.70;;;;;;;24.96;36.63;98641.41;4984392;28;20061;-81
2022/06/22 10:54:43;;;;;;;1.67;1.58;;;;;;;24.67;36.69;98608.34;4945894;28;20122;-81
2022/06/22 10:57:22;;;;;;;2.95;1.83;;;;;;;24.49;36.03;98650.69;4986300;28;20058;-80
2022/06/22 11:00:04;;;;;;;16.13;12.65;;;;;;;24.65;37.15;98650.19;4982955;28;20054;-82
2022/06/22 11:03:02;;;;;;;5.72;4.15;;;;;;;25.06;36.92;98652.94;4987060;28;20070;-80
2022/06/22 11:05:56;;;;;;;3.20;2.22;;;;;;;25.01;36.56;98656.97;4983255;28;20046;-80
2022/06/22 11:08:34;;;;;;;2.00;1.63;;;;;;;25.22;36.40;98655.09;5000580;28;20054;-82
2022/06/22 11:11:10;;;;;;;2.05;1.73;;;;;;;25.22;36.64;98667.53;4985099;28;20148;-81
2022/06/22 11:13:45;;;;;;;2.10;1.70;;;;;;;24.88;35.87;98666.00;4983086;28;20223;-82
2022/06/22 11:16:39;;;;;;;10.52;7.63;;;;;;;24.83;36.54;98641.63;4967007;28;20054;-82
2022/06/22 11:19:40;;;;;;;1.67;1.48;;;;;;;25.01;36.50;98654.31;4961959;28;20054;-82
2022/06/22 11:22:35;;;;;;;3.35;2.00;;;;;;;25.11;36.23;98665.81;4971212;28;20039;-81
2022/06/22 11:30:48;;;;;;;3.95;2.42;;;;;;;25.20;36.13;98670.34;4981443;28;20047;-81
2022/06/22 11:31:43;;;;;;;5.65;2.78;;;;;;;25.02;36.14;98661.31;4962991;28;20057;-81
2022/06/22 11:34:38;;;;;;;3.45;1.88;;;;;;;25.28;35.66;98667.00;4953474;28;20149;-81
2022/06/22 11:37:17;;;;;;;;;;;;;;;25.47;35.95;98674.25;4951598;28;20108;-80
2022/06/22 11:40:03;;;;;;;4.05;1.92;;;;;;;25.36;35.97;98674.31;4963912;28;20438;-82
2022/06/22 11:43:02;;;;;;;4.78;1.90;;;;;;;25.03;36.23;98663.84;4965158;28;20063;-82
2022/06/22 11:46:05;;;;;;;6.05;3.63;;;;;;;25.08;36.79;98668.75;4959665;28;20368;-81
2022/06/22 11:48:56;;;;;;;2.03;1.70;;;;;;;25.25;36.70;98677.94;4948312;28;20620;-84
2022/06/22 11:51:28;;;;;;;3.92;1.60;;;;;;;25.45;36.24;98678.88;4961235;28;20101;-83
2022/06/22 11:54:10;;;;;;;2.70;2.25;;;;;;;25.37;36.57;98657.38;4963980;28;20133;-82
2022/06/22 11:57:08;;;;;;;4.45;1.70;;;;;;;25.31;36.70;98676.53;4962077;28;20078;-82
2022/06/22 11:59:58;;;;;;;4.45;3.45;;;;;;;25.01;37.32;98668.44;4957961;28;20546;-81
2022/06/22 12:02:47;;;;;;;13.98;10.25;;;;;;;24.99;37.69;98675.72;4977095;28;20134;-83
2022/06/22 12:05:13;;;;;;;14.65;10.48;;;;;;;25.19;37.57;98671.31;4974732;28;20074;-83
2022/06/22 12:08:04;;;;;;;2.58;1.90;;;;;;;25.23;37.31;98675.41;4949190;28;20055;-83
2022/06/22 12:11:22;;;;;;;11.23;7.70;;;;;;;25.22;37.71;98641.78;4965556;28;20043;-84
2022/06/22 12:17:09;;;;;;;10.15;8.95;;;;;;;25.85;37.36;98667.28;4966979;28;20077;-82
2022/06/22 12:19:58;;;;;;;3.63;2.83;;;;;;;25.54;37.32;98672.69;4952507;28;20070;-84
2022/06/22 12:22:33;;;;;;;9.13;7.05;;;;;;;25.15;38.07;98661.94;4966615;28;20065;-84
2022/06/22 12:25:08;;;;;;;10.15;4.60;;;;;;;25.30;38.24;98672.19;4937875;28;20396;-85
2022/06/22 12:27:47;;;;;;;5.15;3.42;;;;;;;25.02;37.82;98626.75;4953409;28;20054;-83
2022/06/22 12:30:39;;;;;;;3.47;2.10;;;;;;;25.31;38.01;98661.41;4968772;28;20542;-83
2022/06/22 12:33:22;;;;;;;2.60;2.20;;;;;;;25.33;38.05;98663.94;4960442;28;21438;-83
2022/06/22 12:36:22;;;;;;;3.80;2.50;;;;;;;25.37;37.91;98668.00;4981051;28;20527;-82
2022/06/22 12:38:57;;;;;;;4.25;2.92;;;;;;;25.33;37.77;98669.25;4966080;28;20046;-82
2022/06/22 12:41:48;;;;;;;6.07;2.05;;;;;;;25.07;38.02;98669.72;4965375;28;20141;-84
2022/06/22 12:45:05;;;;;;;2.85;2.00;;;;;;;24.73;38.24;98678.81;4965070;28;20043;-80
2022/06/22 12:48:13;;;;;;;3.38;1.60;;;;;;;24.61;38.79;98647.94;4942239;28;20078;-81
2022/06/22 12:50:57;;;;;;;3.72;2.38;;;;;;;24.82;38.64;98671.88;4971934;28;20481;-83
2022/06/22 12:54:12;;;;;;;;;;;;;;;;;;;;;
2022/06/22 12:56:57;;;;;;;4.72;1.88;;;;;;;24.01;39.29;98543.09;4962159;28;20047;-79
2022/06/22 12:59:42;;;;;;;9.70;4.25;;;;;;;23.95;39.12;98509.03;4962078;28;20407;-82
2022/06/22 13:02:32;;;;;;;4.57;2.65;;;;;;;24.61;38.92;98584.94;4965133;28;20097;-82
2022/06/22 13:05:10;;;;;;;6.30;3.97;;;;;;;24.54;38.58;98572.31;4966721;28;20190;-80